sensor_id;sensor_type;location;lat;lon;timestamp;P1;durP1;ratioP1;P2;durP2;ratioP2
12719;SDS011;6424;48.520;11.228;2022-12-16T00:01:56;51.13;;;31.77;;
12719;SDS011;6424;48.520;11.228;2022-12-16T00:04:37;48.90;;;32.07;;
12719;SDS011;6424;48.520;11.228;2022-12-16T00:07:18;46.97;;;29.73;;
12719;SDS011;6424;48.520;11.228;2022-12-16T00:09:59;46.47;;;30.33;;
12719;SDS011;6424;48.520;11.228;2022-12-16T00:12:40;49.07;;;30.03;;
12719;SDS011;6424;48.520;11.228;2022-12-16T00:15:20;52.80;;;32.93;;
12719;SDS011;6424;48.520;11.228;2022-12-16T00:18:01;52.00;;;32.23;;
12719;SDS011;6424;48.520;11.228;2022-12-16T00:20:51;48.80;;;30.63;;
12719;SDS011;6424;48.520;11.228;2022-12-16T00:23:33;47.03;;;29.93;;
12719;SDS011;6424;48.520;11.228;2022-12-16T00:26:15;43.30;;;29.77;;
12719;SDS011;6424;48.520;11.228;2022-12-16T00:28:56;40.83;;;27.97;;
12719;SDS011;6424;48.520;11.228;2022-12-16T00:31:37;46.27;;;29.93;;
12719;SDS011;6424;48.520;11.228;2022-12-16T00:34:18;44.53;;;28.53;;
12719;SDS011;6424;48.520;11.228;2022-12-16T00:36:59;44.63;;;28.10;;
12719;SDS011;6424;48.520;11.228;2022-12-16T00:39:40;41.87;;;26.73;;
12719;SDS011;6424;48.520;11.228;2022-12-16T00:42:20;41.40;;;25.10;;
12719;SDS011;6424;48.520;11.228;2022-12-16T00:45:01;45.90;;;27.70;;
12719;SDS011;6424;48.520;11.228;2022-12-16T00:47:43;44.03;;;27.87;;
12719;SDS011;6424;48.520;11.228;2022-12-16T00:50:24;44.10;;;26.97;;
12719;SDS011;6424;48.520;11.228;2022-12-16T00:53:05;43.07;;;27.43;;
12719;SDS011;6424;48.520;11.228;2022-12-16T00:55:46;41.33;;;26.70;;
12719;SDS011;6424;48.520;11.228;2022-12-16T00:58:27;41.83;;;25.73;;
12719;SDS011;6424;48.520;11.228;2022-12-16T01:01:08;40.03;;;26.07;;
12719;SDS011;6424;48.520;11.228;2022-12-16T01:03:49;38.97;;;25.43;;
12719;SDS011;6424;48.520;11.228;2022-12-16T01:06:29;39.67;;;25.27;;
12719;SDS011;6424;48.520;11.228;2022-12-16T01:08:56;40.87;;;25.73;;
12719;SDS011;6424;48.520;11.228;2022-12-16T01:11:36;43.03;;;24.83;;
12719;SDS011;6424;48.520;11.228;2022-12-16T01:14:17;46.83;;;27.37;;
12719;SDS011;6424;48.520;11.228;2022-12-16T01:16:58;45.73;;;26.80;;
12719;SDS011;6424;48.520;11.228;2022-12-16T01:19:40;41.53;;;25.00;;
12719;SDS011;6424;48.520;11.228;2022-12-16T01:22:21;39.37;;;24.67;;
12719;SDS011;6424;48.520;11.228;2022-12-16T01:25:02;42.67;;;25.70;;
12719;SDS011;6424;48.520;11.228;2022-12-16T01:27:43;43.43;;;27.23;;
12719;SDS011;6424;48.520;11.228;2022-12-16T01:30:24;45.73;;;27.00;;
12719;SDS011;6424;48.520;11.228;2022-12-16T01:33:05;42.47;;;26.30;;
12719;SDS011;6424;48.520;11.228;2022-12-16T01:35:45;41.13;;;25.33;;
12719;SDS011;6424;48.520;11.228;2022-12-16T01:38:26;41.67;;;25.50;;
12719;SDS011;6424;48.520;11.228;2022-12-16T01:41:08;43.27;;;26.67;;
12719;SDS011;6424;48.520;11.228;2022-12-16T01:43:49;41.53;;;27.03;;
12719;SDS011;6424;48.520;11.228;2022-12-16T01:46:30;47.70;;;26.13;;
12719;SDS011;6424;48.520;11.228;2022-12-16T01:49:18;42.93;;;25.67;;
12719;SDS011;6424;48.520;11.228;2022-12-16T01:52:06;43.17;;;26.80;;
12719;SDS011;6424;48.520;11.228;2022-12-16T01:55:08;43.67;;;26.07;;
12719;SDS011;6424;48.520;11.228;2022-12-16T01:58:12;41.83;;;24.97;;
12719;SDS011;6424;48.520;11.228;2022-12-16T02:00:59;43.80;;;26.40;;
12719;SDS011;6424;48.520;11.228;2022-12-16T02:03:42;44.33;;;25.93;;
12719;SDS011;6424;48.520;11.228;2022-12-16T02:06:23;42.70;;;26.70;;
12719;SDS011;6424;48.520;11.228;2022-12-16T02:09:05;46.07;;;28.10;;
12719;SDS011;6424;48.520;11.228;2022-12-16T02:17:40;49.87;;;28.20;;
12719;SDS011;6424;48.520;11.228;2022-12-16T02:23:53;52.00;;;30.23;;
12719;SDS011;6424;48.520;11.228;2022-12-16T02:32:56;48.53;;;29.53;;
12719;SDS011;6424;48.520;11.228;2022-12-16T02:38:32;49.00;;;31.00;;
12719;SDS011;6424;48.520;11.228;2022-12-16T02:44:24;51.23;;;30.63;;
12719;SDS011;6424;48.520;11.228;2022-12-16T02:47:19;47.33;;;30.00;;
12719;SDS011;6424;48.520;11.228;2022-12-16T02:49:49;54.40;;;31.07;;
12719;SDS011;6424;48.520;11.228;2022-12-16T02:52:31;56.20;;;30.67;;
12719;SDS011;6424;48.520;11.228;2022-12-16T02:55:14;53.10;;;30.87;;
12719;SDS011;6424;48.520;11.228;2022-12-16T02:58:00;50.47;;;28.90;;
12719;SDS011;6424;48.520;11.228;2022-12-16T03:04:01;50.37;;;28.93;;
12719;SDS011;6424;48.520;11.228;2022-12-16T03:06:51;51.53;;;30.80;;
12719;SDS011;6424;48.520;11.228;2022-12-16T03:09:34;55.90;;;31.80;;
12719;SDS011;6424;48.520;11.228;2022-12-16T03:12:18;56.30;;;31.17;;
12719;SDS011;6424;48.520;11.228;2022-12-16T03:15:01;53.83;;;31.63;;
12719;SDS011;6424;48.520;11.228;2022-12-16T03:17:43;53.23;;;31.43;;
12719;SDS011;6424;48.520;11.228;2022-12-16T03:20:29;56.40;;;31.63;;
12719;SDS011;6424;48.520;11.228;2022-12-16T03:23:19;60.30;;;32.93;;
12719;SDS011;6424;48.520;11.228;2022-12-16T03:26:08;56.60;;;32.50;;
12719;SDS011;6424;48.520;11.228;2022-12-16T03:31:29;56.37;;;32.00;;
12719;SDS011;6424;48.520;11.228;2022-12-16T03:34:33;52.70;;;30.47;;
12719;SDS011;6424;48.520;11.228;2022-12-16T03:37:05;52.07;;;31.97;;
12719;SDS011;6424;48.520;11.228;2022-12-16T03:39:34;54.57;;;31.33;;
12719;SDS011;6424;48.520;11.228;2022-12-16T03:42:19;59.90;;;33.07;;
12719;SDS011;6424;48.520;11.228;2022-12-16T03:45:00;57.07;;;32.97;;
12719;SDS011;6424;48.520;11.228;2022-12-16T03:47:42;53.13;;;31.60;;
12719;SDS011;6424;48.520;11.228;2022-12-16T03:50:32;57.23;;;33.87;;
12719;SDS011;6424;48.520;11.228;2022-12-16T03:53:13;53.63;;;32.33;;
12719;SDS011;6424;48.520;11.228;2022-12-16T03:55:39;59.60;;;31.67;;
12719;SDS011;6424;48.520;11.228;2022-12-16T03:58:20;58.80;;;32.57;;
12719;SDS011;6424;48.520;11.228;2022-12-16T04:01:01;58.40;;;33.77;;
12719;SDS011;6424;48.520;11.228;2022-12-16T04:03:42;57.70;;;33.67;;
12719;SDS011;6424;48.520;11.228;2022-12-16T04:06:23;54.67;;;31.83;;
12719;SDS011;6424;48.520;11.228;2022-12-16T04:09:04;62.13;;;35.73;;
12719;SDS011;6424;48.520;11.228;2022-12-16T04:11:44;62.77;;;34.60;;
12719;SDS011;6424;48.520;11.228;2022-12-16T04:14:44;62.43;;;35.03;;
12719;SDS011;6424;48.520;11.228;2022-12-16T04:17:43;62.77;;;35.50;;
12719;SDS011;6424;48.520;11.228;2022-12-16T04:20:43;63.90;;;34.93;;
12719;SDS011;6424;48.520;11.228;2022-12-16T04:23:54;67.93;;;35.17;;
12719;SDS011;6424;48.520;11.228;2022-12-16T04:26:55;60.67;;;35.47;;
12719;SDS011;6424;48.520;11.228;2022-12-16T04:29:54;67.20;;;35.53;;
12719;SDS011;6424;48.520;11.228;2022-12-16T04:32:57;60.13;;;35.13;;
12719;SDS011;6424;48.520;11.228;2022-12-16T04:36:03;60.07;;;34.23;;
12719;SDS011;6424;48.520;11.228;2022-12-16T04:38:47;57.47;;;34.23;;
12719;SDS011;6424;48.520;11.228;2022-12-16T04:41:32;59.67;;;33.77;;
12719;SDS011;6424;48.520;11.228;2022-12-16T04:44:31;61.33;;;35.60;;
12719;SDS011;6424;48.520;11.228;2022-12-16T04:47:30;62.33;;;35.70;;
12719;SDS011;6424;48.520;11.228;2022-12-16T04:50:29;64.80;;;35.83;;
12719;SDS011;6424;48.520;11.228;2022-12-16T04:53:28;63.47;;;34.60;;
12719;SDS011;6424;48.520;11.228;2022-12-16T04:56:13;64.27;;;37.17;;
12719;SDS011;6424;48.520;11.228;2022-12-16T04:59:12;62.47;;;35.87;;
12719;SDS011;6424;48.520;11.228;2022-12-16T05:02:11;60.73;;;36.03;;
12719;SDS011;6424;48.520;11.228;2022-12-16T05:05:10;59.80;;;34.00;;
12719;SDS011;6424;48.520;11.228;2022-12-16T05:08:09;68.77;;;37.77;;
12719;SDS011;6424;48.520;11.228;2022-12-16T05:11:08;59.13;;;34.87;;
12719;SDS011;6424;48.520;11.228;2022-12-16T05:14:08;60.07;;;34.23;;
12719;SDS011;6424;48.520;11.228;2022-12-16T05:17:07;60.70;;;34.07;;
12719;SDS011;6424;48.520;11.228;2022-12-16T05:20:06;58.67;;;33.90;;
12719;SDS011;6424;48.520;11.228;2022-12-16T05:22:51;57.60;;;33.37;;
12719;SDS011;6424;48.520;11.228;2022-12-16T05:25:54;61.30;;;35.33;;
12719;SDS011;6424;48.520;11.228;2022-12-16T05:28:38;60.90;;;35.43;;
12719;SDS011;6424;48.520;11.228;2022-12-16T05:31:37;63.53;;;35.97;;
12719;SDS011;6424;48.520;11.228;2022-12-16T05:34:36;59.83;;;34.60;;
12719;SDS011;6424;48.520;11.228;2022-12-16T05:37:35;69.17;;;37.67;;
12719;SDS011;6424;48.520;11.228;2022-12-16T05:40:34;60.63;;;33.97;;
12719;SDS011;6424;48.520;11.228;2022-12-16T05:43:34;55.07;;;31.60;;
12719;SDS011;6424;48.520;11.228;2022-12-16T05:46:33;59.50;;;33.67;;
12719;SDS011;6424;48.520;11.228;2022-12-16T05:49:17;54.70;;;33.70;;
12719;SDS011;6424;48.520;11.228;2022-12-16T05:52:16;54.20;;;31.77;;
12719;SDS011;6424;48.520;11.228;2022-12-16T05:55:00;57.80;;;34.20;;
12719;SDS011;6424;48.520;11.228;2022-12-16T05:58:00;55.60;;;33.27;;
12719;SDS011;6424;48.520;11.228;2022-12-16T06:00:59;55.70;;;31.93;;
12719;SDS011;6424;48.520;11.228;2022-12-16T06:03:59;53.13;;;32.00;;
12719;SDS011;6424;48.520;11.228;2022-12-16T06:06:58;59.00;;;32.57;;
12719;SDS011;6424;48.520;11.228;2022-12-16T06:09:57;53.23;;;31.73;;
12719;SDS011;6424;48.520;11.228;2022-12-16T06:12:56;59.60;;;34.13;;
12719;SDS011;6424;48.520;11.228;2022-12-16T06:15:55;53.17;;;31.07;;
12719;SDS011;6424;48.520;11.228;2022-12-16T06:18:54;54.57;;;31.30;;
12719;SDS011;6424;48.520;11.228;2022-12-16T06:21:54;52.57;;;31.90;;
12719;SDS011;6424;48.520;11.228;2022-12-16T06:24:38;55.47;;;33.87;;
12719;SDS011;6424;48.520;11.228;2022-12-16T06:27:37;55.73;;;31.77;;
12719;SDS011;6424;48.520;11.228;2022-12-16T06:30:36;56.57;;;33.27;;
12719;SDS011;6424;48.520;11.228;2022-12-16T06:33:36;46.27;;;29.70;;
12719;SDS011;6424;48.520;11.228;2022-12-16T06:36:35;53.93;;;31.73;;
12719;SDS011;6424;48.520;11.228;2022-12-16T06:39:35;53.50;;;32.40;;
12719;SDS011;6424;48.520;11.228;2022-12-16T06:42:37;57.40;;;32.93;;
12719;SDS011;6424;48.520;11.228;2022-12-16T06:45:39;51.57;;;31.23;;
12719;SDS011;6424;48.520;11.228;2022-12-16T06:48:38;51.83;;;31.83;;
12719;SDS011;6424;48.520;11.228;2022-12-16T06:51:38;51.67;;;30.47;;
12719;SDS011;6424;48.520;11.228;2022-12-16T06:54:37;50.40;;;31.00;;
12719;SDS011;6424;48.520;11.228;2022-12-16T06:57:36;54.70;;;30.47;;
12719;SDS011;6424;48.520;11.228;2022-12-16T07:00:35;50.83;;;29.97;;
12719;SDS011;6424;48.520;11.228;2022-12-16T07:03:35;49.33;;;31.03;;
12719;SDS011;6424;48.520;11.228;2022-12-16T07:06:34;50.83;;;31.10;;
12719;SDS011;6424;48.520;11.228;2022-12-16T07:09:18;46.17;;;30.07;;
12719;SDS011;6424;48.520;11.228;2022-12-16T07:12:17;50.27;;;30.33;;
12719;SDS011;6424;48.520;11.228;2022-12-16T07:15:17;52.80;;;31.60;;
12719;SDS011;6424;48.520;11.228;2022-12-16T07:18:16;47.97;;;29.37;;
12719;SDS011;6424;48.520;11.228;2022-12-16T07:21:15;47.63;;;29.17;;
12719;SDS011;6424;48.520;11.228;2022-12-16T07:24:14;46.93;;;28.53;;
12719;SDS011;6424;48.520;11.228;2022-12-16T07:27:14;44.20;;;27.67;;
12719;SDS011;6424;48.520;11.228;2022-12-16T07:30:13;45.90;;;29.27;;
12719;SDS011;6424;48.520;11.228;2022-12-16T07:33:12;42.03;;;26.50;;
12719;SDS011;6424;48.520;11.228;2022-12-16T07:36:11;46.47;;;28.23;;
12719;SDS011;6424;48.520;11.228;2022-12-16T07:38:56;41.93;;;26.90;;
12719;SDS011;6424;48.520;11.228;2022-12-16T07:41:55;41.13;;;27.27;;
12719;SDS011;6424;48.520;11.228;2022-12-16T07:44:39;43.77;;;26.77;;
12719;SDS011;6424;48.520;11.228;2022-12-16T07:47:45;46.73;;;27.27;;
12719;SDS011;6424;48.520;11.228;2022-12-16T07:50:45;44.40;;;26.57;;
12719;SDS011;6424;48.520;11.228;2022-12-16T07:53:44;42.67;;;28.30;;
12719;SDS011;6424;48.520;11.228;2022-12-16T07:56:44;54.67;;;34.57;;
12719;SDS011;6424;48.520;11.228;2022-12-16T07:59:43;48.87;;;31.33;;
12719;SDS011;6424;48.520;11.228;2022-12-16T08:02:42;45.40;;;29.00;;
12719;SDS011;6424;48.520;11.228;2022-12-16T08:05:26;44.17;;;27.50;;
12719;SDS011;6424;48.520;11.228;2022-12-16T08:08:25;42.33;;;26.73;;
12719;SDS011;6424;48.520;11.228;2022-12-16T08:11:38;43.03;;;27.40;;
12719;SDS011;6424;48.520;11.228;2022-12-16T08:14:37;38.93;;;26.53;;
12719;SDS011;6424;48.520;11.228;2022-12-16T08:17:22;42.57;;;26.60;;
12719;SDS011;6424;48.520;11.228;2022-12-16T08:20:21;39.37;;;26.20;;
12719;SDS011;6424;48.520;11.228;2022-12-16T08:23:20;42.80;;;26.40;;
12719;SDS011;6424;48.520;11.228;2022-12-16T08:26:04;40.90;;;26.20;;
12719;SDS011;6424;48.520;11.228;2022-12-16T08:29:03;42.00;;;26.47;;
12719;SDS011;6424;48.520;11.228;2022-12-16T08:32:03;38.73;;;25.83;;
12719;SDS011;6424;48.520;11.228;2022-12-16T08:35:02;39.93;;;25.73;;
12719;SDS011;6424;48.520;11.228;2022-12-16T08:38:01;43.07;;;26.70;;
12719;SDS011;6424;48.520;11.228;2022-12-16T08:41:01;40.20;;;25.30;;
12719;SDS011;6424;48.520;11.228;2022-12-16T08:43:45;38.93;;;25.30;;
12719;SDS011;6424;48.520;11.228;2022-12-16T08:46:44;37.00;;;25.27;;
12719;SDS011;6424;48.520;11.228;2022-12-16T08:49:43;41.17;;;26.07;;
12719;SDS011;6424;48.520;11.228;2022-12-16T08:52:56;38.20;;;24.33;;
12719;SDS011;6424;48.520;11.228;2022-12-16T08:55:41;38.50;;;25.10;;
12719;SDS011;6424;48.520;11.228;2022-12-16T08:58:40;35.87;;;22.70;;
12719;SDS011;6424;48.520;11.228;2022-12-16T09:01:39;36.07;;;23.73;;
12719;SDS011;6424;48.520;11.228;2022-12-16T09:04:38;36.23;;;23.73;;
12719;SDS011;6424;48.520;11.228;2022-12-16T09:07:38;31.87;;;22.63;;
12719;SDS011;6424;48.520;11.228;2022-12-16T09:10:37;35.70;;;24.57;;
12719;SDS011;6424;48.520;11.228;2022-12-16T09:13:36;35.57;;;23.07;;
12719;SDS011;6424;48.520;11.228;2022-12-16T09:16:35;34.90;;;21.83;;
12719;SDS011;6424;48.520;11.228;2022-12-16T09:19:20;34.03;;;22.43;;
12719;SDS011;6424;48.520;11.228;2022-12-16T09:22:04;35.23;;;22.47;;
12719;SDS011;6424;48.520;11.228;2022-12-16T09:25:03;31.10;;;22.43;;
12719;SDS011;6424;48.520;11.228;2022-12-16T09:28:03;34.27;;;21.50;;
12719;SDS011;6424;48.520;11.228;2022-12-16T09:31:02;34.43;;;22.60;;
12719;SDS011;6424;48.520;11.228;2022-12-16T09:34:01;33.27;;;21.70;;
12719;SDS011;6424;48.520;11.228;2022-12-16T09:37:00;35.43;;;23.73;;
12719;SDS011;6424;48.520;11.228;2022-12-16T09:40:00;32.47;;;22.87;;
12719;SDS011;6424;48.520;11.228;2022-12-16T09:46:38;37.37;;;24.07;;
12719;SDS011;6424;48.520;11.228;2022-12-16T09:50:00;35.30;;;23.87;;
12719;SDS011;6424;48.520;11.228;2022-12-16T09:53:00;34.63;;;24.10;;
12719;SDS011;6424;48.520;11.228;2022-12-16T09:56:05;33.20;;;22.80;;
12719;SDS011;6424;48.520;11.228;2022-12-16T09:59:13;32.60;;;22.57;;
12719;SDS011;6424;48.520;11.228;2022-12-16T10:02:17;33.60;;;22.63;;
12719;SDS011;6424;48.520;11.228;2022-12-16T10:05:18;36.93;;;24.40;;
12719;SDS011;6424;48.520;11.228;2022-12-16T10:14:43;31.63;;;20.90;;
12719;SDS011;6424;48.520;11.228;2022-12-16T10:17:49;40.50;;;24.40;;
12719;SDS011;6424;48.520;11.228;2022-12-16T10:21:05;46.40;;;30.27;;
12719;SDS011;6424;48.520;11.228;2022-12-16T10:24:21;35.33;;;22.23;;
12719;SDS011;6424;48.520;11.228;2022-12-16T10:30:43;33.03;;;20.23;;
12719;SDS011;6424;48.520;11.228;2022-12-16T10:33:42;35.10;;;23.63;;
12719;SDS011;6424;48.520;11.228;2022-12-16T10:36:46;30.90;;;21.37;;
12719;SDS011;6424;48.520;11.228;2022-12-16T10:39:49;31.23;;;22.80;;
12719;SDS011;6424;48.520;11.228;2022-12-16T10:43:15;32.73;;;22.23;;
12719;SDS011;6424;48.520;11.228;2022-12-16T10:46:19;34.50;;;23.10;;
12719;SDS011;6424;48.520;11.228;2022-12-16T10:49:23;37.93;;;24.07;;
12719;SDS011;6424;48.520;11.228;2022-12-16T10:52:08;32.37;;;21.90;;
12719;SDS011;6424;48.520;11.228;2022-12-16T10:58:05;29.53;;;20.30;;
12719;SDS011;6424;48.520;11.228;2022-12-16T11:01:22;29.17;;;21.47;;
12719;SDS011;6424;48.520;11.228;2022-12-16T11:10:42;28.23;;;20.80;;
12719;SDS011;6424;48.520;11.228;2022-12-16T11:13:41;31.23;;;21.27;;
12719;SDS011;6424;48.520;11.228;2022-12-16T11:16:41;32.23;;;21.80;;
12719;SDS011;6424;48.520;11.228;2022-12-16T11:19:26;33.23;;;22.63;;
12719;SDS011;6424;48.520;11.228;2022-12-16T11:22:19;32.23;;;21.73;;
12719;SDS011;6424;48.520;11.228;2022-12-16T11:25:20;34.03;;;23.87;;
12719;SDS011;6424;48.520;11.228;2022-12-16T11:28:19;32.47;;;21.63;;
12719;SDS011;6424;48.520;11.228;2022-12-16T11:31:18;31.10;;;21.67;;
12719;SDS011;6424;48.520;11.228;2022-12-16T11:34:03;32.33;;;21.73;;
12719;SDS011;6424;48.520;11.228;2022-12-16T11:37:03;34.43;;;22.43;;
12719;SDS011;6424;48.520;11.228;2022-12-16T11:40:02;30.23;;;21.10;;
12719;SDS011;6424;48.520;11.228;2022-12-16T11:43:03;31.57;;;21.50;;
12719;SDS011;6424;48.520;11.228;2022-12-16T11:46:11;31.73;;;20.70;;
12719;SDS011;6424;48.520;11.228;2022-12-16T11:49:27;30.53;;;21.40;;
12719;SDS011;6424;48.520;11.228;2022-12-16T11:52:29;29.90;;;21.33;;
12719;SDS011;6424;48.520;11.228;2022-12-16T11:55:30;30.07;;;21.50;;
12719;SDS011;6424;48.520;11.228;2022-12-16T11:58:37;30.57;;;21.33;;
12719;SDS011;6424;48.520;11.228;2022-12-16T12:04:56;32.97;;;22.23;;
12719;SDS011;6424;48.520;11.228;2022-12-16T12:08:00;33.47;;;22.60;;
12719;SDS011;6424;48.520;11.228;2022-12-16T12:11:16;31.30;;;21.53;;
12719;SDS011;6424;48.520;11.228;2022-12-16T12:21:56;31.57;;;21.37;;
12719;SDS011;6424;48.520;11.228;2022-12-16T12:38:15;28.53;;;18.67;;
12719;SDS011;6424;48.520;11.228;2022-12-16T12:47:38;27.20;;;18.03;;
12719;SDS011;6424;48.520;11.228;2022-12-16T12:50:45;27.60;;;19.07;;
12719;SDS011;6424;48.520;11.228;2022-12-16T12:57:08;26.73;;;18.30;;
12719;SDS011;6424;48.520;11.228;2022-12-16T13:00:15;25.60;;;19.03;;
12719;SDS011;6424;48.520;11.228;2022-12-16T13:06:34;29.10;;;20.83;;
12719;SDS011;6424;48.520;11.228;2022-12-16T13:09:35;28.87;;;20.00;;
12719;SDS011;6424;48.520;11.228;2022-12-16T13:12:36;28.03;;;18.60;;
12719;SDS011;6424;48.520;11.228;2022-12-16T13:15:36;27.27;;;18.30;;
12719;SDS011;6424;48.520;11.228;2022-12-16T13:19:38;25.33;;;17.17;;
12719;SDS011;6424;48.520;11.228;2022-12-16T13:29:01;25.23;;;18.50;;
12719;SDS011;6424;48.520;11.228;2022-12-16T13:35:19;26.27;;;16.90;;
12719;SDS011;6424;48.520;11.228;2022-12-16T13:50:41;24.80;;;16.70;;
12719;SDS011;6424;48.520;11.228;2022-12-16T13:53:43;27.13;;;16.87;;
12719;SDS011;6424;48.520;11.228;2022-12-16T13:56:47;23.93;;;16.80;;
12719;SDS011;6424;48.520;11.228;2022-12-16T13:59:47;24.13;;;16.30;;
12719;SDS011;6424;48.520;11.228;2022-12-16T14:02:49;22.40;;;15.53;;
12719;SDS011;6424;48.520;11.228;2022-12-16T14:05:50;25.00;;;16.20;;
12719;SDS011;6424;48.520;11.228;2022-12-16T14:08:51;21.27;;;15.23;;
12719;SDS011;6424;48.520;11.228;2022-12-16T14:11:56;21.13;;;15.20;;
12719;SDS011;6424;48.520;11.228;2022-12-16T14:15:07;21.60;;;15.23;;
12719;SDS011;6424;48.520;11.228;2022-12-16T14:21:44;24.23;;;17.43;;
12719;SDS011;6424;48.520;11.228;2022-12-16T14:24:49;23.77;;;18.03;;
12719;SDS011;6424;48.520;11.228;2022-12-16T14:27:48;23.40;;;18.03;;
12719;SDS011;6424;48.520;11.228;2022-12-16T14:30:47;21.83;;;16.60;;
12719;SDS011;6424;48.520;11.228;2022-12-16T14:33:50;27.37;;;18.47;;
12719;SDS011;6424;48.520;11.228;2022-12-16T14:36:51;23.97;;;16.47;;
12719;SDS011;6424;48.520;11.228;2022-12-16T14:39:36;26.27;;;16.60;;
12719;SDS011;6424;48.520;11.228;2022-12-16T14:42:38;20.80;;;15.10;;
12719;SDS011;6424;48.520;11.228;2022-12-16T14:48:31;21.40;;;15.30;;
12719;SDS011;6424;48.520;11.228;2022-12-16T14:51:34;21.83;;;15.93;;
12719;SDS011;6424;48.520;11.228;2022-12-16T14:54:35;23.53;;;16.30;;
12719;SDS011;6424;48.520;11.228;2022-12-16T14:57:40;22.37;;;15.67;;
12719;SDS011;6424;48.520;11.228;2022-12-16T15:00:39;22.93;;;14.50;;
12719;SDS011;6424;48.520;11.228;2022-12-16T15:03:41;21.10;;;15.13;;
12719;SDS011;6424;48.520;11.228;2022-12-16T15:06:44;19.43;;;13.83;;
12719;SDS011;6424;48.520;11.228;2022-12-16T15:09:48;19.90;;;14.67;;
12719;SDS011;6424;48.520;11.228;2022-12-16T15:12:49;19.07;;;14.67;;
12719;SDS011;6424;48.520;11.228;2022-12-16T15:15:49;19.13;;;14.17;;
12719;SDS011;6424;48.520;11.228;2022-12-16T15:18:37;19.97;;;14.57;;
12719;SDS011;6424;48.520;11.228;2022-12-16T15:21:25;19.60;;;14.40;;
12719;SDS011;6424;48.520;11.228;2022-12-16T15:24:24;19.57;;;14.30;;
12719;SDS011;6424;48.520;11.228;2022-12-16T15:27:33;25.97;;;14.33;;
12719;SDS011;6424;48.520;11.228;2022-12-16T15:30:42;19.90;;;14.00;;
12719;SDS011;6424;48.520;11.228;2022-12-16T15:33:43;18.53;;;13.73;;
12719;SDS011;6424;48.520;11.228;2022-12-16T15:36:43;21.83;;;15.17;;
12719;SDS011;6424;48.520;11.228;2022-12-16T15:39:43;18.67;;;13.70;;
12719;SDS011;6424;48.520;11.228;2022-12-16T15:42:28;19.97;;;13.43;;
12719;SDS011;6424;48.520;11.228;2022-12-16T15:45:31;18.80;;;13.73;;
12719;SDS011;6424;48.520;11.228;2022-12-16T15:48:31;18.33;;;13.97;;
12719;SDS011;6424;48.520;11.228;2022-12-16T15:51:41;18.80;;;14.17;;
12719;SDS011;6424;48.520;11.228;2022-12-16T15:54:52;21.33;;;14.20;;
12719;SDS011;6424;48.520;11.228;2022-12-16T15:57:55;20.70;;;13.73;;
12719;SDS011;6424;48.520;11.228;2022-12-16T16:00:55;20.30;;;14.47;;
12719;SDS011;6424;48.520;11.228;2022-12-16T16:03:42;20.37;;;13.40;;
12719;SDS011;6424;48.520;11.228;2022-12-16T16:06:49;17.20;;;13.20;;
12719;SDS011;6424;48.520;11.228;2022-12-16T16:09:50;19.37;;;13.43;;
12719;SDS011;6424;48.520;11.228;2022-12-16T16:12:59;20.17;;;14.57;;
12719;SDS011;6424;48.520;11.228;2022-12-16T16:15:59;20.37;;;14.13;;
12719;SDS011;6424;48.520;11.228;2022-12-16T16:18:58;20.00;;;14.10;;
12719;SDS011;6424;48.520;11.228;2022-12-16T16:21:58;18.93;;;14.03;;
12719;SDS011;6424;48.520;11.228;2022-12-16T16:24:57;21.87;;;15.90;;
12719;SDS011;6424;48.520;11.228;2022-12-16T16:27:56;22.50;;;16.90;;
12719;SDS011;6424;48.520;11.228;2022-12-16T16:30:56;21.13;;;15.20;;
12719;SDS011;6424;48.520;11.228;2022-12-16T16:33:40;21.37;;;16.87;;
12719;SDS011;6424;48.520;11.228;2022-12-16T16:36:39;22.27;;;15.27;;
12719;SDS011;6424;48.520;11.228;2022-12-16T16:39:38;21.20;;;15.07;;
12719;SDS011;6424;48.520;11.228;2022-12-16T16:42:40;18.53;;;13.57;;
12719;SDS011;6424;48.520;11.228;2022-12-16T16:45:39;20.43;;;14.13;;
12719;SDS011;6424;48.520;11.228;2022-12-16T16:48:38;21.10;;;14.77;;
12719;SDS011;6424;48.520;11.228;2022-12-16T16:51:38;20.00;;;15.17;;
12719;SDS011;6424;48.520;11.228;2022-12-16T16:54:22;17.13;;;13.47;;
12719;SDS011;6424;48.520;11.228;2022-12-16T16:57:22;17.77;;;13.30;;
12719;SDS011;6424;48.520;11.228;2022-12-16T17:00:22;26.27;;;17.00;;
12719;SDS011;6424;48.520;11.228;2022-12-16T17:03:21;18.87;;;15.03;;
12719;SDS011;6424;48.520;11.228;2022-12-16T17:06:20;17.10;;;13.80;;
12719;SDS011;6424;48.520;11.228;2022-12-16T17:09:20;46.57;;;27.10;;
12719;SDS011;6424;48.520;11.228;2022-12-16T17:12:20;140.53;;;58.63;;
12719;SDS011;6424;48.520;11.228;2022-12-16T17:15:30;30.40;;;20.13;;
12719;SDS011;6424;48.520;11.228;2022-12-16T17:18:32;22.07;;;15.73;;
12719;SDS011;6424;48.520;11.228;2022-12-16T17:21:31;19.87;;;16.53;;
12719;SDS011;6424;48.520;11.228;2022-12-16T17:24:31;22.87;;;16.50;;
12719;SDS011;6424;48.520;11.228;2022-12-16T17:27:30;18.23;;;14.37;;
12719;SDS011;6424;48.520;11.228;2022-12-16T17:30:29;23.07;;;17.93;;
12719;SDS011;6424;48.520;11.228;2022-12-16T17:33:29;22.47;;;17.00;;
12719;SDS011;6424;48.520;11.228;2022-12-16T17:36:28;20.53;;;16.33;;
12719;SDS011;6424;48.520;11.228;2022-12-16T17:39:27;22.53;;;18.70;;
12719;SDS011;6424;48.520;11.228;2022-12-16T17:42:26;18.20;;;14.57;;
12719;SDS011;6424;48.520;11.228;2022-12-16T17:45:25;20.73;;;14.93;;
12719;SDS011;6424;48.520;11.228;2022-12-16T17:48:25;20.07;;;15.10;;
12719;SDS011;6424;48.520;11.228;2022-12-16T17:51:24;21.97;;;16.00;;
12719;SDS011;6424;48.520;11.228;2022-12-16T17:54:23;24.43;;;15.70;;
12719;SDS011;6424;48.520;11.228;2022-12-16T17:57:23;21.53;;;14.77;;
12719;SDS011;6424;48.520;11.228;2022-12-16T18:00:22;24.73;;;16.33;;
12719;SDS011;6424;48.520;11.228;2022-12-16T18:03:21;23.07;;;15.23;;
12719;SDS011;6424;48.520;11.228;2022-12-16T18:06:21;19.30;;;14.30;;
12719;SDS011;6424;48.520;11.228;2022-12-16T18:09:20;19.63;;;14.37;;
12719;SDS011;6424;48.520;11.228;2022-12-16T18:12:19;20.60;;;14.73;;
12719;SDS011;6424;48.520;11.228;2022-12-16T18:15:19;23.73;;;16.00;;
12719;SDS011;6424;48.520;11.228;2022-12-16T18:18:18;22.30;;;15.00;;
12719;SDS011;6424;48.520;11.228;2022-12-16T18:21:17;20.50;;;14.87;;
12719;SDS011;6424;48.520;11.228;2022-12-16T18:24:16;25.10;;;15.50;;
12719;SDS011;6424;48.520;11.228;2022-12-16T18:27:15;26.03;;;17.47;;
12719;SDS011;6424;48.520;11.228;2022-12-16T18:30:15;25.63;;;17.90;;
12719;SDS011;6424;48.520;11.228;2022-12-16T18:32:59;24.93;;;16.43;;
12719;SDS011;6424;48.520;11.228;2022-12-16T18:36:06;24.07;;;16.63;;
12719;SDS011;6424;48.520;11.228;2022-12-16T18:39:05;26.73;;;17.63;;
12719;SDS011;6424;48.520;11.228;2022-12-16T18:42:05;26.10;;;17.57;;
12719;SDS011;6424;48.520;11.228;2022-12-16T18:45:04;27.90;;;17.30;;
12719;SDS011;6424;48.520;11.228;2022-12-16T18:48:03;23.47;;;17.50;;
12719;SDS011;6424;48.520;11.228;2022-12-16T18:50:52;23.20;;;16.37;;
12719;SDS011;6424;48.520;11.228;2022-12-16T18:54:15;25.47;;;16.63;;
12719;SDS011;6424;48.520;11.228;2022-12-16T18:57:14;20.80;;;15.30;;
12719;SDS011;6424;48.520;11.228;2022-12-16T19:00:14;22.77;;;16.03;;
12719;SDS011;6424;48.520;11.228;2022-12-16T19:03:13;24.37;;;17.73;;